createdAt,value
2018-03-25T00:01:49.005Z,72.00
2018-03-25T00:04:17.866Z,72.18
2018-03-25T00:06:45.383Z,71.53
2018-03-25T00:09:12.996Z,70.87
2018-03-25T00:11:41.436Z,70.62
2018-03-25T00:14:09.008Z,70.41
2018-03-25T00:16:36.528Z,70.43
2018-03-25T00:19:04.129Z,70.26
2018-03-25T00:21:31.648Z,70.31
2018-03-25T00:23:59.256Z,70.84
2018-03-25T00:26:26.810Z,70.49
2018-03-25T00:28:54.304Z,70.43
2018-03-25T00:31:21.823Z,70.40
2018-03-25T00:33:49.366Z,70.45
2018-03-25T00:36:16.859Z,69.49
2018-03-25T00:38:44.385Z,69.46
2018-03-25T00:41:11.880Z,69.06
2018-03-25T00:43:39.392Z,68.89
2018-03-25T00:46:06.979Z,68.67
2018-03-25T00:48:34.503Z,68.57
2018-03-25T00:51:01.987Z,68.60
2018-03-25T00:53:29.629Z,68.56
2018-03-25T00:55:57.152Z,68.64
2018-03-25T00:58:24.673Z,69.09
2018-03-25T01:00:52.168Z,68.89
2018-03-25T01:03:19.780Z,69.27
2018-03-25T01:05:47.279Z,69.10
2018-03-25T01:08:14.828Z,69.11
2018-03-25T01:10:42.336Z,68.36
2018-03-25T01:13:09.946Z,68.89
2018-03-25T01:15:49.381Z,69.09
2018-03-25T01:18:16.931Z,69.41
2018-03-25T01:20:44.433Z,69.80
2018-03-25T01:23:11.939Z,70.52
2018-03-25T01:25:39.428Z,70.72
2018-03-25T01:28:06.943Z,70.62
2018-03-25T01:30:34.441Z,70.38
2018-03-25T01:33:01.993Z,70.09
2018-03-25T01:35:29.499Z,69.82
2018-03-25T01:37:57.012Z,70.08
2018-03-25T01:40:24.534Z,70.64
2018-03-25T01:42:52.120Z,70.28
2018-03-25T01:45:19.654Z,70.37
2018-03-25T01:47:47.156Z,70.73
2018-03-25T01:50:14.714Z,71.15
2018-03-25T01:52:42.263Z,71.69
2018-03-25T01:55:09.822Z,71.28
2018-03-25T01:57:37.384Z,70.91
2018-03-25T02:00:04.947Z,70.70
2018-03-25T02:02:32.457Z,70.83
2018-03-25T02:04:59.980Z,70.87
2018-03-25T02:07:27.478Z,70.82
2018-03-25T02:09:59.016Z,71.89
2018-03-25T02:12:26.803Z,71.52
2018-03-25T02:14:54.324Z,72.36
2018-03-25T02:17:21.852Z,72.28
2018-03-25T02:19:49.407Z,73.05
2018-03-25T02:22:16.980Z,73.49
2018-03-25T02:24:44.527Z,73.78
2018-03-25T02:27:12.019Z,74.50
2018-03-25T02:29:39.544Z,75.05
2018-03-25T02:32:07.041Z,76.40
2018-03-25T02:34:34.558Z,76.36
2018-03-25T02:37:02.045Z,76.39
2018-03-25T02:39:29.595Z,77.06
2018-03-25T02:41:57.092Z,77.10
2018-03-25T02:44:24.604Z,76.87
2018-03-25T02:46:52.116Z,77.07
2018-03-25T02:49:19.738Z,77.37
2018-03-25T02:51:47.261Z,77.52
2018-03-25T02:54:14.761Z,77.23
2018-03-25T02:56:42.294Z,77.84
2018-03-25T02:59:09.862Z,78.17
2018-03-25T03:01:37.425Z,78.23
2018-03-25T03:04:04.976Z,78.67
2018-03-25T03:06:32.496Z,79.10
2018-03-25T03:09:00.091Z,78.92
2018-03-25T03:11:27.607Z,78.85
2018-03-25T03:13:55.235Z,78.57
2018-03-25T03:16:22.752Z,78.94
2018-03-25T03:18:50.256Z,78.84
2018-03-25T03:21:17.787Z,79.03
2018-03-25T03:23:45.358Z,79.56
2018-03-25T03:26:12.886Z,80.00
2018-03-25T03:28:40.380Z,80.04
2018-03-25T03:31:07.934Z,79.88
2018-03-25T03:33:35.428Z,80.10
2018-03-25T03:36:02.942Z,80.50
2018-03-25T03:38:30.508Z,80.61
2018-03-25T03:40:58.072Z,80.39
2018-03-25T03:43:25.565Z,80.12
2018-03-25T03:45:53.088Z,80.00
2018-03-25T03:48:20.657Z,80.04
2018-03-25T03:50:48.169Z,80.39
2018-03-25T03:53:15.800Z,80.37
2018-03-25T03:55:43.312Z,80.34
2018-03-25T03:58:10.885Z,80.50
2018-03-25T04:00:38.396Z,80.42
2018-03-25T04:03:05.912Z,80.65
2018-03-25T04:05:33.464Z,80.27
2018-03-25T04:08:01.023Z,80.05
2018-03-25T04:10:28.584Z,80.03
2018-03-25T04:12:56.116Z,79.64
2018-03-25T04:15:23.635Z,79.75
2018-03-25T04:17:51.149Z,79.74
2018-03-25T04:20:18.722Z,79.89
2018-03-25T04:22:46.269Z,79.54
2018-03-25T04:25:13.771Z,79.24
2018-03-25T04:27:41.283Z,79.52
2018-03-25T04:30:08.772Z,79.72
2018-03-25T04:32:36.283Z,79.82
2018-03-25T04:35:03.775Z,80.26
2018-03-25T04:37:31.334Z,80.35
2018-03-25T04:39:58.836Z,80.41
2018-03-25T04:42:26.366Z,80.17
2018-03-25T04:44:53.852Z,80.24
2018-03-25T04:47:21.391Z,80.48
2018-03-25T04:49:48.892Z,80.67
2018-03-25T04:52:16.484Z,80.85
2018-03-25T04:54:43.972Z,80.93
2018-03-25T04:57:11.497Z,81.26
2018-03-25T04:59:39.060Z,80.98
2018-03-25T05:02:06.624Z,81.02
2018-03-25T05:04:34.131Z,80.95
2018-03-25T05:07:01.621Z,80.89
2018-03-25T05:09:29.141Z,80.92
2018-03-25T05:11:56.639Z,81.07
2018-03-25T05:14:24.156Z,80.70
2018-03-25T05:16:51.655Z,80.74
2018-03-25T05:19:19.189Z,80.95
2018-03-25T05:21:46.682Z,80.99
2018-03-25T05:24:14.204Z,81.33
2018-03-25T05:26:41.708Z,81.43
2018-03-25T05:29:09.228Z,81.22
2018-03-25T05:31:36.719Z,80.72
2018-03-25T05:34:04.234Z,80.39
2018-03-25T05:36:31.733Z,80.12
2018-03-25T05:38:59.409Z,80.03
2018-03-25T05:41:26.907Z,79.83
2018-03-25T05:43:54.424Z,78.92
2018-03-25T05:46:21.943Z,78.13
2018-03-25T05:48:49.452Z,77.55
2018-03-25T05:51:16.939Z,77.07
2018-03-25T05:53:45.412Z,76.80
2018-03-25T05:56:12.908Z,76.99
2018-03-25T05:58:40.432Z,76.95
2018-03-25T06:01:07.921Z,77.06
2018-03-25T06:03:35.441Z,76.87
2018-03-25T06:06:02.968Z,77.32
2018-03-25T06:08:30.533Z,76.77
2018-03-25T06:10:58.041Z,76.74
2018-03-25T06:13:25.537Z,76.91
2018-03-25T06:15:53.064Z,76.37
2018-03-25T06:18:20.561Z,75.75
2018-03-25T06:20:48.127Z,75.24
2018-03-25T06:23:15.639Z,75.09
2018-03-25T06:25:43.158Z,74.65
2018-03-25T06:28:10.652Z,73.66
2018-03-25T06:30:38.163Z,73.57
2018-03-25T06:33:05.727Z,73.69
2018-03-25T06:35:33.256Z,73.05
2018-03-25T06:38:00.850Z,72.53
2018-03-25T06:40:28.616Z,71.51
2018-03-25T06:42:56.168Z,71.99
2018-03-25T06:45:23.734Z,71.21
2018-03-25T06:47:51.229Z,70.05
2018-03-25T06:50:18.793Z,69.83
2018-03-25T06:52:46.339Z,69.74
2018-03-25T06:55:13.844Z,69.62
2018-03-25T06:57:41.428Z,69.68
2018-03-25T07:00:08.915Z,68.66
2018-03-25T07:02:36.459Z,68.25
2018-03-25T07:05:03.956Z,68.11
2018-03-25T07:07:31.628Z,67.90
2018-03-25T07:09:59.128Z,67.40
2018-03-25T07:12:26.915Z,66.89
2018-03-25T07:14:54.420Z,66.11
2018-03-25T07:17:22.004Z,66.36
2018-03-25T07:19:49.536Z,65.73
2018-03-25T07:22:17.103Z,64.94
2018-03-25T07:24:44.596Z,64.32
2018-03-25T07:27:12.135Z,62.72
2018-03-25T07:29:39.719Z,62.21
2018-03-25T07:32:07.267Z,60.63
2018-03-25T07:34:34.760Z,59.46
2018-03-25T07:37:02.299Z,57.81
2018-03-25T07:39:29.844Z,58.08
2018-03-25T07:41:57.412Z,55.47
2018-03-25T07:44:24.985Z,54.78
2018-03-25T07:46:52.524Z,53.64
2018-03-25T07:49:21.442Z,55.43
2018-03-25T07:51:49.072Z,54.13
2018-03-25T07:54:16.568Z,53.44
2018-03-25T07:56:44.104Z,53.44
2018-03-25T07:59:11.624Z,54.38
2018-03-25T08:01:39.137Z,54.38
2018-03-25T08:04:06.652Z,54.56
2018-03-25T08:06:34.245Z,53.07
2018-03-25T08:09:01.731Z,53.81
2018-03-25T08:11:29.257Z,53.08
2018-03-25T08:13:56.772Z,52.51
2018-03-25T08:16:24.332Z,52.52
2018-03-25T08:18:51.856Z,51.04
2018-03-25T08:21:20.317Z,50.57
2018-03-25T08:23:47.813Z,49.67
2018-03-25T08:26:15.335Z,48.57
2018-03-25T08:28:42.879Z,47.47
2018-03-25T08:31:10.381Z,47.45
2018-03-25T08:33:37.917Z,46.69
2018-03-25T08:36:05.439Z,46.21
2018-03-25T08:38:32.960Z,46.38
2018-03-25T08:41:00.456Z,45.76
2018-03-25T08:43:28.048Z,46.77
2018-03-25T08:45:55.568Z,47.75
2018-03-25T08:48:23.099Z,47.59
2018-03-25T08:50:50.720Z,48.70
2018-03-25T08:53:18.263Z,49.56
2018-03-25T08:55:45.756Z,48.19
2018-03-25T08:58:13.312Z,48.27
2018-03-25T09:00:40.832Z,49.56
2018-03-25T09:03:08.364Z,49.10
2018-03-25T09:05:36.084Z,48.86
2018-03-25T09:08:03.755Z,48.34
2018-03-25T09:10:31.263Z,48.44
2018-03-25T09:12:58.873Z,48.53
2018-03-25T09:15:26.393Z,47.68
2018-03-25T09:17:53.917Z,46.80
2018-03-25T09:20:21.416Z,46.93
2018-03-25T09:22:48.985Z,46.23
2018-03-25T09:25:16.572Z,45.18
2018-03-25T09:27:44.091Z,45.05
2018-03-25T09:30:11.594Z,45.06
2018-03-25T09:32:39.140Z,44.06
2018-03-25T09:35:06.640Z,43.58
2018-03-25T09:37:34.164Z,44.82
2018-03-25T09:40:01.682Z,44.95
2018-03-25T09:42:29.216Z,44.36
2018-03-25T09:47:31.844Z,42.23
2018-03-25T09:49:59.429Z,42.68
2018-03-25T09:52:26.976Z,39.27
2018-03-25T09:54:54.505Z,36.06
2018-03-25T09:57:22.119Z,35.21
2018-03-25T09:59:49.725Z,32.68
2018-03-25T10:05:25.035Z,31.08
2018-03-25T10:07:52.527Z,33.03
2018-03-25T10:10:20.063Z,32.72
2018-03-25T10:12:47.572Z,32.01
2018-03-25T10:15:15.121Z,31.74
2018-03-25T10:17:42.622Z,31.91
2018-03-25T10:20:10.148Z,32.40
2018-03-25T10:22:37.685Z,31.50
2018-03-25T10:25:05.224Z,29.13
2018-03-25T10:27:32.756Z,28.44
2018-03-25T10:30:00.333Z,29.54
2018-03-25T10:32:27.855Z,29.31
2018-03-25T10:34:55.617Z,29.45
2018-03-25T10:37:23.132Z,27.98
2018-03-25T10:39:50.732Z,27.92
2018-03-25T10:42:18.260Z,28.99
2018-03-25T10:44:45.788Z,29.47
2018-03-25T10:47:13.303Z,27.62
2018-03-25T10:49:40.868Z,26.60
2018-03-25T10:52:08.371Z,25.73
2018-03-25T10:54:36.031Z,25.31
2018-03-25T10:57:03.536Z,25.61
2018-03-25T10:59:31.104Z,26.84
2018-03-25T11:01:58.625Z,27.45
2018-03-25T11:04:26.162Z,23.66
2018-03-25T11:06:53.660Z,23.53
2018-03-25T11:09:21.187Z,25.85
2018-03-25T11:11:48.737Z,23.01
2018-03-25T11:14:16.309Z,22.97
2018-03-25T11:16:43.939Z,23.37
2018-03-25T11:19:12.420Z,24.61
2018-03-25T11:21:39.988Z,22.60
2018-03-25T11:24:08.504Z,21.77
2018-03-25T11:26:36.024Z,22.54
2018-03-25T11:29:03.552Z,23.38
2018-03-25T11:31:31.180Z,20.32
2018-03-25T11:33:58.727Z,20.30
2018-03-25T11:36:26.280Z,20.61
2018-03-25T11:38:53.852Z,18.56
2018-03-25T11:41:21.375Z,20.35
2018-03-25T11:43:48.897Z,20.73
2018-03-25T11:46:16.432Z,19.51
2018-03-25T11:48:43.949Z,18.21
2018-03-25T11:51:11.492Z,18.56
2018-03-25T11:53:39.008Z,17.11
2018-03-25T11:56:06.576Z,16.70
2018-03-25T11:58:34.079Z,16.79
2018-03-25T12:01:01.624Z,16.35
2018-03-25T12:03:29.143Z,16.25
2018-03-25T12:05:56.677Z,15.68
2018-03-25T12:08:24.175Z,14.29
2018-03-25T12:10:51.718Z,14.81
2018-03-25T12:13:19.243Z,15.67
2018-03-25T12:15:46.825Z,16.14
2018-03-25T12:18:14.325Z,16.54
2018-03-25T12:20:41.922Z,14.55
2018-03-25T12:23:09.442Z,15.48
2018-03-25T12:25:37.000Z,15.07
2018-03-25T12:28:04.543Z,16.15
2018-03-25T12:30:32.064Z,14.83
2018-03-25T12:32:59.680Z,14.26
2018-03-25T12:35:27.188Z,14.35
2018-03-25T12:37:54.737Z,15.26
2018-03-25T12:40:22.240Z,18.31
2018-03-25T12:42:49.771Z,17.90
2018-03-25T12:45:17.267Z,15.63
2018-03-25T12:47:44.795Z,14.73
2018-03-25T12:50:12.292Z,13.84
2018-03-25T12:52:39.808Z,15.32
2018-03-25T12:55:07.466Z,14.10
2018-03-25T12:57:34.980Z,13.93
2018-03-25T13:00:02.484Z,13.19
2018-03-25T13:02:30.020Z,13.70
2018-03-25T13:04:57.534Z,14.03
2018-03-25T13:07:25.105Z,13.08
2018-03-25T13:09:52.592Z,11.41
2018-03-25T13:12:20.128Z,12.46
2018-03-25T13:14:47.616Z,12.51
2018-03-25T13:17:15.151Z,12.52
2018-03-25T13:19:42.652Z,15.47
2018-03-25T13:22:10.165Z,14.86
2018-03-25T13:24:37.674Z,14.23
2018-03-25T13:27:05.173Z,17.45
2018-03-25T13:29:32.734Z,21.00
2018-03-25T13:32:00.223Z,21.20
2018-03-25T13:34:27.849Z,18.24
2018-03-25T13:36:55.524Z,17.37
2018-03-25T13:39:23.081Z,13.63
2018-03-25T13:41:50.579Z,15.50
2018-03-25T13:44:18.096Z,13.16
2018-03-25T13:46:45.588Z,15.22
2018-03-25T13:49:13.144Z,17.23
2018-03-25T13:51:40.675Z,20.14
2018-03-25T13:54:08.220Z,24.12
2018-03-25T13:56:35.784Z,18.52
2018-03-25T13:59:03.305Z,15.39
2018-03-25T14:01:30.858Z,13.46
2018-03-25T14:03:58.366Z,13.76
2018-03-25T14:06:25.879Z,17.44
2018-03-25T14:08:53.472Z,19.39
2018-03-25T14:11:20.965Z,19.41
2018-03-25T14:13:48.504Z,16.78
2018-03-25T14:16:16.019Z,16.47
2018-03-25T14:18:43.675Z,14.54
2018-03-25T14:21:11.160Z,14.71
2018-03-25T14:23:38.675Z,13.90
2018-03-25T14:26:06.208Z,14.05
2018-03-25T14:28:33.765Z,12.51
2018-03-25T14:31:01.261Z,12.13
2018-03-25T14:33:28.799Z,11.77
2018-03-25T14:35:56.382Z,11.95
2018-03-25T14:38:23.974Z,10.85
2018-03-25T14:40:51.611Z,12.00
2018-03-25T14:43:19.227Z,16.06
2018-03-25T14:45:46.743Z,14.29
2018-03-25T14:48:14.335Z,14.41
2018-03-25T14:50:41.888Z,16.21
2018-03-25T14:53:09.467Z,16.20
2018-03-25T14:55:37.009Z,19.71
2018-03-25T14:58:04.533Z,22.46
2018-03-25T15:00:32.272Z,24.55
2018-03-25T15:02:59.809Z,26.29
2018-03-25T15:05:27.328Z,26.68
2018-03-25T15:07:54.905Z,27.85
2018-03-25T15:10:22.393Z,29.10
2018-03-25T15:12:50.003Z,29.20
2018-03-25T15:15:17.596Z,29.44
2018-03-25T15:17:45.087Z,29.12
2018-03-25T15:20:12.616Z,30.52
2018-03-25T15:22:40.197Z,29.91
2018-03-25T15:25:07.741Z,28.91
2018-03-25T15:27:35.281Z,29.72
2018-03-25T15:30:02.788Z,28.84
2018-03-25T15:32:30.275Z,28.74
2018-03-25T15:34:57.891Z,30.48
2018-03-25T15:37:25.397Z,30.45
2018-03-25T15:39:52.949Z,29.79
2018-03-25T15:42:20.459Z,31.05
2018-03-25T15:44:47.981Z,31.25
2018-03-25T15:47:15.573Z,31.53
2018-03-25T15:49:43.135Z,32.74
2018-03-25T15:52:10.633Z,32.37
2018-03-25T15:54:38.179Z,32.04
2018-03-25T15:57:05.683Z,31.69
2018-03-25T15:59:33.180Z,30.47
2018-03-25T16:02:00.820Z,30.97
2018-03-25T16:04:28.313Z,31.26
2018-03-25T16:06:55.897Z,31.55
2018-03-25T16:09:23.395Z,33.28
2018-03-25T16:11:50.982Z,34.08
2018-03-25T16:14:18.492Z,34.15
2018-03-25T16:16:46.080Z,33.72
2018-03-25T16:19:13.578Z,34.39
2018-03-25T16:21:41.114Z,34.44
2018-03-25T16:24:08.625Z,34.86
2018-03-25T16:26:36.147Z,34.64
2018-03-25T16:29:03.659Z,35.23
2018-03-25T16:31:31.236Z,34.56
2018-03-25T16:33:58.764Z,33.96
2018-03-25T16:36:27.374Z,34.65
2018-03-25T16:38:54.954Z,35.52
2018-03-25T16:41:22.518Z,36.15
2018-03-25T16:43:50.024Z,35.80
2018-03-25T16:46:17.627Z,37.03
2018-03-25T16:48:45.171Z,36.87
2018-03-25T16:51:12.728Z,36.61
2018-03-25T16:53:40.226Z,37.65
2018-03-25T16:56:07.784Z,37.85
2018-03-25T16:58:35.297Z,39.06
2018-03-25T17:01:03.810Z,38.99
2018-03-25T17:03:31.319Z,39.50
2018-03-25T17:05:58.853Z,39.87
2018-03-25T17:08:26.367Z,39.66
2018-03-25T17:10:54.936Z,40.72
2018-03-25T17:13:22.848Z,40.88
2018-03-25T17:15:50.332Z,41.11
2018-03-25T17:18:17.885Z,41.12
2018-03-25T17:20:45.389Z,42.73
2018-03-25T17:23:12.912Z,42.06
2018-03-25T17:25:41.483Z,42.96
2018-03-25T17:28:09.024Z,42.73
2018-03-25T17:30:36.526Z,42.99
2018-03-25T17:33:05.161Z,43.15
2018-03-25T17:35:33.706Z,43.37
2018-03-25T17:38:02.201Z,43.98
2018-03-25T17:40:29.768Z,43.38
2018-03-25T17:42:57.306Z,43.99
2018-03-25T17:45:29.914Z,43.89
2018-03-25T17:47:57.428Z,43.50
2018-03-25T17:50:24.923Z,43.54
2018-03-25T17:52:52.528Z,43.71
2018-03-25T17:55:20.938Z,43.80
2018-03-25T17:57:48.545Z,44.26
2018-03-25T18:00:16.064Z,44.32
2018-03-25T18:02:43.602Z,44.28
2018-03-25T18:05:11.101Z,44.81
2018-03-25T18:07:38.629Z,45.04
2018-03-25T18:10:06.138Z,45.71
2018-03-25T18:12:33.684Z,45.72
2018-03-25T18:15:01.181Z,46.05
2018-03-25T18:17:34.106Z,45.58
2018-03-25T18:19:56.477Z,45.72
2018-03-25T18:22:24.020Z,46.22
2018-03-25T18:24:51.671Z,45.88
2018-03-25T18:27:19.224Z,46.11
2018-03-25T18:29:46.756Z,46.67
2018-03-25T18:32:14.304Z,46.46
2018-03-25T18:34:41.825Z,47.64
2018-03-25T18:37:09.376Z,46.92
2018-03-25T18:39:36.895Z,46.92
2018-03-25T18:42:04.411Z,47.17
2018-03-25T18:44:31.960Z,47.48
2018-03-25T18:46:59.464Z,47.34
2018-03-25T18:49:27.012Z,47.69
2018-03-25T18:51:54.519Z,48.42
2018-03-25T18:54:22.048Z,49.15
2018-03-25T18:56:49.548Z,49.41
2018-03-25T18:59:17.072Z,49.64
2018-03-25T19:01:44.576Z,49.93
2018-03-25T19:04:12.103Z,49.71
2018-03-25T19:06:39.602Z,50.54
2018-03-25T19:09:07.124Z,50.39
2018-03-25T19:11:34.626Z,50.21
2018-03-25T19:14:02.153Z,50.00
2018-03-25T19:16:29.656Z,49.69
2018-03-25T19:18:57.192Z,49.60
2018-03-25T19:21:24.700Z,49.99
2018-03-25T19:23:52.330Z,49.49
2018-03-25T19:26:19.848Z,49.57
2018-03-25T19:28:47.400Z,49.44
2018-03-25T19:31:14.932Z,49.47
2018-03-25T19:33:42.458Z,49.45
2018-03-25T19:36:09.970Z,49.73
2018-03-25T19:38:37.509Z,50.78
2018-03-25T19:41:05.024Z,50.53
2018-03-25T19:43:32.561Z,50.20
2018-03-25T19:46:00.111Z,50.23
2018-03-25T19:48:27.647Z,50.16
2018-03-25T19:50:55.170Z,50.19
2018-03-25T19:53:22.669Z,50.02
2018-03-25T19:55:50.216Z,50.10
2018-03-25T19:58:17.745Z,49.83
2018-03-25T20:00:45.281Z,49.94
2018-03-25T20:03:12.786Z,50.56
2018-03-25T20:05:40.311Z,50.35
2018-03-25T20:08:07.804Z,50.25
2018-03-25T20:10:35.332Z,50.88
2018-03-25T20:13:02.904Z,50.64
2018-03-25T20:15:30.429Z,50.93
2018-03-25T20:17:57.927Z,51.11
2018-03-25T20:20:25.461Z,51.03
2018-03-25T20:22:52.973Z,51.48
2018-03-25T20:25:20.619Z,51.58
2018-03-25T20:27:48.168Z,51.19
2018-03-25T20:30:15.680Z,50.61
2018-03-25T20:32:43.280Z,50.31
2018-03-25T20:35:10.841Z,50.26
2018-03-25T20:37:38.430Z,50.30
2018-03-25T20:40:05.948Z,50.65
2018-03-25T20:42:33.476Z,50.93
2018-03-25T20:45:00.988Z,50.66
2018-03-25T20:47:28.536Z,51.19
2018-03-25T20:49:56.067Z,51.37
2018-03-25T20:52:23.608Z,51.37
2018-03-25T20:54:51.106Z,51.62
2018-03-25T20:57:18.645Z,51.75
2018-03-25T20:59:46.160Z,51.76
2018-03-25T21:02:13.695Z,51.54
2018-03-25T21:04:41.190Z,51.64
2018-03-25T21:07:08.712Z,52.32
2018-03-25T21:09:36.210Z,52.48
2018-03-25T21:12:03.739Z,52.29
2018-03-25T21:14:31.237Z,52.12
2018-03-25T21:16:58.756Z,51.68
2018-03-25T21:19:26.259Z,51.22
2018-03-25T21:21:53.776Z,51.35
2018-03-25T21:24:21.280Z,51.26
2018-03-25T21:26:48.897Z,51.25
2018-03-25T21:29:16.408Z,51.19
2018-03-25T21:31:43.931Z,51.01
2018-03-25T21:34:11.428Z,51.05
2018-03-25T21:36:39.964Z,51.46
2018-03-25T21:39:07.468Z,51.42
2018-03-25T21:41:34.992Z,52.41
2018-03-25T21:44:02.491Z,52.54
2018-03-25T21:46:30.116Z,52.50
2018-03-25T21:48:57.782Z,53.06
2018-03-25T21:51:25.415Z,53.04
2018-03-25T21:53:52.920Z,52.57
2018-03-25T21:56:20.427Z,53.23
2018-03-25T21:58:48.016Z,53.06
2018-03-25T22:01:15.517Z,52.93
2018-03-25T22:03:43.140Z,53.50
2018-03-25T22:06:10.671Z,54.16
2018-03-25T22:08:38.258Z,55.20
2018-03-25T22:11:05.753Z,55.60
2018-03-25T22:13:33.277Z,56.51
2018-03-25T22:16:00.832Z,56.94
2018-03-25T22:18:32.265Z,57.59
2018-03-25T22:20:59.768Z,57.48
2018-03-25T22:23:27.287Z,57.33
2018-03-25T22:25:54.780Z,56.74
2018-03-25T22:28:22.320Z,56.97
2018-03-25T22:30:49.818Z,56.80
2018-03-25T22:33:17.347Z,57.00
2018-03-25T22:35:44.851Z,57.26
2018-03-25T22:38:12.443Z,57.66
2018-03-25T22:40:40.015Z,57.79
2018-03-25T22:43:07.538Z,58.58
2018-03-25T22:45:35.045Z,59.45
2018-03-25T22:48:02.568Z,60.00
2018-03-25T22:50:30.066Z,60.88
2018-03-25T22:52:57.663Z,61.67
2018-03-25T22:55:25.189Z,61.82
2018-03-25T22:57:52.714Z,62.01
2018-03-25T23:00:20.248Z,62.83
2018-03-25T23:02:47.827Z,63.00
2018-03-25T23:05:15.404Z,63.20
2018-03-25T23:07:42.914Z,62.93
2018-03-25T23:10:10.431Z,63.07
2018-03-25T23:12:37.914Z,63.44
2018-03-25T23:15:05.434Z,63.70
2018-03-25T23:17:32.993Z,64.96
2018-03-25T23:20:00.543Z,64.60
2018-03-25T23:22:28.040Z,64.67
2018-03-25T23:24:55.577Z,64.50
2018-03-25T23:27:23.133Z,65.08
2018-03-25T23:29:50.672Z,65.18
2018-03-25T23:32:18.160Z,65.44
2018-03-25T23:34:45.806Z,65.42
2018-03-25T23:37:13.299Z,66.00
2018-03-25T23:39:40.838Z,66.24
2018-03-25T23:42:08.341Z,66.32
2018-03-25T23:44:35.939Z,65.97
2018-03-25T23:47:03.503Z,66.18
2018-03-25T23:49:31.069Z,66.67
2018-03-25T23:51:58.604Z,66.93
2018-03-25T23:54:26.183Z,66.63
2018-03-25T23:56:53.700Z,66.52
2018-03-25T23:59:21.207Z,66.81
